sensor_id;sensor_type;location;lat;lon;timestamp;pressure;altitude;pressure_sealevel;temperature;humidity
67987;BME280;54767;53.800;15.956;2023-04-30T00:02:20;100480.23;;;6.22;69.19
67987;BME280;54767;53.800;15.956;2023-04-30T00:04:48;100480.66;;;6.18;69.17
67987;BME280;54767;53.800;15.956;2023-04-30T00:07:19;100483.68;;;6.14;69.18
67987;BME280;54767;53.800;15.956;2023-04-30T00:09:48;100487.75;;;6.09;68.91
67987;BME280;54767;53.800;15.956;2023-04-30T00:12:18;100488.49;;;6.04;68.85
67987;BME280;54767;53.800;15.956;2023-04-30T00:14:46;100489.78;;;6.00;68.88
67987;BME280;54767;53.800;15.956;2023-04-30T00:17:14;100483.45;;;5.97;68.51
67987;BME280;54767;53.800;15.956;2023-04-30T00:19:43;100484.20;;;5.93;68.58
67987;BME280;54767;53.800;15.956;2023-04-30T00:22:11;100489.11;;;5.89;68.76
67987;BME280;54767;53.800;15.956;2023-04-30T00:24:39;100496.16;;;5.85;68.59
67987;BME280;54767;53.800;15.956;2023-04-30T00:27:07;100489.77;;;5.80;68.56
67987;BME280;54767;53.800;15.956;2023-04-30T00:29:35;100491.52;;;5.73;68.58
67987;BME280;54767;53.800;15.956;2023-04-30T00:32:04;100493.09;;;5.67;68.53
67987;BME280;54767;53.800;15.956;2023-04-30T00:34:33;100494.01;;;5.62;68.71
67987;BME280;54767;53.800;15.956;2023-04-30T00:37:01;100495.81;;;5.59;68.64
67987;BME280;54767;53.800;15.956;2023-04-30T00:39:29;100498.02;;;5.57;68.64
67987;BME280;54767;53.800;15.956;2023-04-30T00:41:57;100503.52;;;5.54;68.53
67987;BME280;54767;53.800;15.956;2023-04-30T00:44:25;100502.19;;;5.50;68.65
67987;BME280;54767;53.800;15.956;2023-04-30T00:46:53;100508.83;;;5.45;68.38
67987;BME280;54767;53.800;15.956;2023-04-30T00:49:21;100508.66;;;5.39;68.72
67987;BME280;54767;53.800;15.956;2023-04-30T00:51:50;100511.83;;;5.34;68.76
67987;BME280;54767;53.800;15.956;2023-04-30T00:54:19;100517.08;;;5.29;68.56
67987;BME280;54767;53.800;15.956;2023-04-30T00:56:48;100516.27;;;5.25;68.85
67987;BME280;54767;53.800;15.956;2023-04-30T00:59:16;100519.30;;;5.22;68.73
67987;BME280;54767;53.800;15.956;2023-04-30T01:01:45;100524.28;;;5.20;68.86
67987;BME280;54767;53.800;15.956;2023-04-30T01:04:13;100523.16;;;5.17;68.65
67987;BME280;54767;53.800;15.956;2023-04-30T01:06:41;100528.13;;;5.15;68.44
67987;BME280;54767;53.800;15.956;2023-04-30T01:09:10;100533.55;;;5.11;68.86
67987;BME280;54767;53.800;15.956;2023-04-30T01:14:32;100522.14;;;5.00;68.64
67987;BME280;54767;53.800;15.956;2023-04-30T01:20:00;100527.73;;;4.89;68.58
67987;BME280;54767;53.800;15.956;2023-04-30T01:22:35;100529.70;;;4.86;68.40
67987;BME280;54767;53.800;15.956;2023-04-30T01:28:04;100535.61;;;4.81;68.93
67987;BME280;54767;53.800;15.956;2023-04-30T01:30:35;100528.98;;;4.79;69.18
67987;BME280;54767;53.800;15.956;2023-04-30T01:33:04;100527.16;;;4.76;69.15
67987;BME280;54767;53.800;15.956;2023-04-30T01:38:32;100531.05;;;4.67;69.11
67987;BME280;54767;53.800;15.956;2023-04-30T01:46:39;100542.84;;;4.62;69.03
67987;BME280;54767;53.800;15.956;2023-04-30T01:51:53;100548.97;;;4.58;69.14
67987;BME280;54767;53.800;15.956;2023-04-30T01:54:56;100541.77;;;4.55;69.19
67987;BME280;54767;53.800;15.956;2023-04-30T01:57:31;100545.57;;;4.49;69.11
67987;BME280;54767;53.800;15.956;2023-04-30T02:00:02;100543.54;;;4.45;69.09
67987;BME280;54767;53.800;15.956;2023-04-30T02:02:31;100546.56;;;4.42;69.28
67987;BME280;54767;53.800;15.956;2023-04-30T02:05:00;100555.34;;;4.40;69.07
67987;BME280;54767;53.800;15.956;2023-04-30T02:07:38;100553.42;;;4.40;69.42
67987;BME280;54767;53.800;15.956;2023-04-30T02:10:07;100554.29;;;4.40;69.20
67987;BME280;54767;53.800;15.956;2023-04-30T02:12:35;100553.70;;;4.38;69.40
67987;BME280;54767;53.800;15.956;2023-04-30T02:15:04;100551.37;;;4.35;69.54
67987;BME280;54767;53.800;15.956;2023-04-30T02:17:33;100557.70;;;4.33;69.71
67987;BME280;54767;53.800;15.956;2023-04-30T02:20:01;100560.16;;;4.28;70.03
67987;BME280;54767;53.800;15.956;2023-04-30T02:22:30;100562.86;;;4.26;70.03
67987;BME280;54767;53.800;15.956;2023-04-30T02:24:58;100565.10;;;4.25;69.80
67987;BME280;54767;53.800;15.956;2023-04-30T02:27:28;100561.98;;;4.25;69.95
67987;BME280;54767;53.800;15.956;2023-04-30T02:29:57;100563.69;;;4.25;69.86
67987;BME280;54767;53.800;15.956;2023-04-30T02:32:25;100568.33;;;4.24;69.68
67987;BME280;54767;53.800;15.956;2023-04-30T02:34:54;100567.89;;;4.21;69.51
67987;BME280;54767;53.800;15.956;2023-04-30T02:37:22;100566.25;;;4.19;69.61
67987;BME280;54767;53.800;15.956;2023-04-30T02:39:50;100569.27;;;4.16;69.71
67987;BME280;54767;53.800;15.956;2023-04-30T02:42:19;100567.11;;;4.14;69.58
67987;BME280;54767;53.800;15.956;2023-04-30T02:44:47;100574.88;;;4.13;70.07
67987;BME280;54767;53.800;15.956;2023-04-30T02:47:15;100574.02;;;4.13;70.11
67987;BME280;54767;53.800;15.956;2023-04-30T02:49:43;100576.27;;;4.12;69.79
67987;BME280;54767;53.800;15.956;2023-04-30T02:52:11;100577.81;;;4.12;69.67
67987;BME280;54767;53.800;15.956;2023-04-30T02:54:39;100578.10;;;4.11;69.85
67987;BME280;54767;53.800;15.956;2023-04-30T02:57:08;100579.08;;;4.08;70.04
67987;BME280;54767;53.800;15.956;2023-04-30T02:59:36;100584.52;;;4.06;70.04
67987;BME280;54767;53.800;15.956;2023-04-30T03:02:05;100593.10;;;4.03;69.89
67987;BME280;54767;53.800;15.956;2023-04-30T03:04:33;100593.01;;;4.00;69.69
67987;BME280;54767;53.800;15.956;2023-04-30T03:07:01;100589.48;;;3.99;69.79
67987;BME280;54767;53.800;15.956;2023-04-30T03:09:30;100593.45;;;3.98;69.73
67987;BME280;54767;53.800;15.956;2023-04-30T03:11:59;100593.59;;;3.97;69.77
67987;BME280;54767;53.800;15.956;2023-04-30T03:14:27;100600.67;;;3.97;69.84
67987;BME280;54767;53.800;15.956;2023-04-30T03:16:56;100600.42;;;3.95;69.74
67987;BME280;54767;53.800;15.956;2023-04-30T03:19:24;100601.71;;;3.92;69.73
67987;BME280;54767;53.800;15.956;2023-04-30T03:21:53;100599.35;;;3.89;69.46
67987;BME280;54767;53.800;15.956;2023-04-30T03:24:21;100611.88;;;3.85;69.58
67987;BME280;54767;53.800;15.956;2023-04-30T03:26:49;100612.63;;;3.82;69.80
67987;BME280;54767;53.800;15.956;2023-04-30T03:29:17;100613.55;;;3.78;69.60
67987;BME280;54767;53.800;15.956;2023-04-30T03:31:46;100615.04;;;3.76;69.63
67987;BME280;54767;53.800;15.956;2023-04-30T03:34:14;100619.65;;;3.75;69.66
67987;BME280;54767;53.800;15.956;2023-04-30T03:36:42;100622.06;;;3.75;69.76
67987;BME280;54767;53.800;15.956;2023-04-30T03:39:10;100626.81;;;3.72;69.76
67987;BME280;54767;53.800;15.956;2023-04-30T03:41:38;100628.11;;;3.69;69.73
67987;BME280;54767;53.800;15.956;2023-04-30T03:44:06;100637.55;;;3.67;69.67
67987;BME280;54767;53.800;15.956;2023-04-30T03:46:41;100633.63;;;3.64;69.85
67987;BME280;54767;53.800;15.956;2023-04-30T03:49:12;100639.77;;;3.61;69.80
67987;BME280;54767;53.800;15.956;2023-04-30T03:51:40;100644.07;;;3.61;69.79
67987;BME280;54767;53.800;15.956;2023-04-30T03:54:09;100648.39;;;3.61;69.84
67987;BME280;54767;53.800;15.956;2023-04-30T03:56:37;100648.40;;;3.61;69.66
67987;BME280;54767;53.800;15.956;2023-04-30T03:59:05;100649.95;;;3.61;69.71
67987;BME280;54767;53.800;15.956;2023-04-30T04:01:34;100655.68;;;3.61;69.91
67987;BME280;54767;53.800;15.956;2023-04-30T04:04:02;100659.65;;;3.61;70.11
67987;BME280;54767;53.800;15.956;2023-04-30T04:06:30;100658.61;;;3.61;70.32
67987;BME280;54767;53.800;15.956;2023-04-30T04:08:59;100667.28;;;3.61;70.25
67987;BME280;54767;53.800;15.956;2023-04-30T04:11:27;100666.20;;;3.65;70.24
67987;BME280;54767;53.800;15.956;2023-04-30T04:13:55;100671.55;;;3.69;70.37
67987;BME280;54767;53.800;15.956;2023-04-30T04:16:23;100671.19;;;3.74;70.46
67987;BME280;54767;53.800;15.956;2023-04-30T04:18:52;100672.25;;;3.79;70.48
67987;BME280;54767;53.800;15.956;2023-04-30T04:21:20;100671.17;;;3.83;70.80
67987;BME280;54767;53.800;15.956;2023-04-30T04:23:48;100671.02;;;3.88;70.72
67987;BME280;54767;53.800;15.956;2023-04-30T04:26:17;100672.64;;;3.95;71.17
67987;BME280;54767;53.800;15.956;2023-04-30T04:28:48;100673.91;;;4.01;70.84
67987;BME280;54767;53.800;15.956;2023-04-30T04:31:16;100672.05;;;4.08;71.10
67987;BME280;54767;53.800;15.956;2023-04-30T04:33:45;100669.34;;;4.14;70.83
67987;BME280;54767;53.800;15.956;2023-04-30T04:36:13;100669.55;;;4.21;70.88
67987;BME280;54767;53.800;15.956;2023-04-30T04:38:43;100675.33;;;4.27;70.85
67987;BME280;54767;53.800;15.956;2023-04-30T04:41:11;100678.84;;;4.33;70.79
67987;BME280;54767;53.800;15.956;2023-04-30T04:43:39;100680.61;;;4.40;70.90
67987;BME280;54767;53.800;15.956;2023-04-30T04:46:08;100680.69;;;4.47;71.04
67987;BME280;54767;53.800;15.956;2023-04-30T04:48:38;100681.59;;;4.59;70.82
67987;BME280;54767;53.800;15.956;2023-04-30T04:51:06;100683.02;;;4.70;70.98
67987;BME280;54767;53.800;15.956;2023-04-30T04:53:34;100683.44;;;4.83;70.54
67987;BME280;54767;53.800;15.956;2023-04-30T04:56:04;100692.55;;;4.97;70.82
67987;BME280;54767;53.800;15.956;2023-04-30T04:58:32;100690.77;;;5.12;71.49
67987;BME280;54767;53.800;15.956;2023-04-30T05:01:00;100696.14;;;5.35;71.60
67987;BME280;54767;53.800;15.956;2023-04-30T05:03:30;100697.02;;;5.58;72.26
67987;BME280;54767;53.800;15.956;2023-04-30T05:05:59;100705.73;;;5.88;72.21
67987;BME280;54767;53.800;15.956;2023-04-30T05:08:27;100707.73;;;6.10;71.62
67987;BME280;54767;53.800;15.956;2023-04-30T05:10:55;100709.47;;;6.35;72.18
67987;BME280;54767;53.800;15.956;2023-04-30T05:13:23;100711.31;;;6.59;71.76
67987;BME280;54767;53.800;15.956;2023-04-30T05:15:52;100711.73;;;6.76;71.28
67987;BME280;54767;53.800;15.956;2023-04-30T05:18:21;100712.02;;;6.95;71.23
67987;BME280;54767;53.800;15.956;2023-04-30T05:20:49;100717.58;;;7.08;70.79
67987;BME280;54767;53.800;15.956;2023-04-30T05:23:17;100722.07;;;7.29;71.22
67987;BME280;54767;53.800;15.956;2023-04-30T05:25:50;100727.85;;;7.54;70.94
67987;BME280;54767;53.800;15.956;2023-04-30T05:28:19;100730.27;;;7.78;71.15
67987;BME280;54767;53.800;15.956;2023-04-30T05:30:47;100731.52;;;8.04;71.05
67987;BME280;54767;53.800;15.956;2023-04-30T05:33:15;100736.02;;;8.37;70.62
67987;BME280;54767;53.800;15.956;2023-04-30T05:35:43;100734.92;;;8.43;69.38
67987;BME280;54767;53.800;15.956;2023-04-30T05:38:12;100739.46;;;8.53;69.66
67987;BME280;54767;53.800;15.956;2023-04-30T05:40:40;100740.45;;;8.70;69.35
67987;BME280;54767;53.800;15.956;2023-04-30T05:43:08;100741.57;;;8.83;69.00
67987;BME280;54767;53.800;15.956;2023-04-30T05:45:36;100742.44;;;8.93;68.68
67987;BME280;54767;53.800;15.956;2023-04-30T05:48:04;100739.41;;;9.00;68.23
67987;BME280;54767;53.800;15.956;2023-04-30T05:50:33;100742.36;;;9.09;68.34
67987;BME280;54767;53.800;15.956;2023-04-30T05:53:01;100743.19;;;9.29;68.42
67987;BME280;54767;53.800;15.956;2023-04-30T05:55:29;100746.12;;;9.39;67.73
67987;BME280;54767;53.800;15.956;2023-04-30T05:57:58;100754.04;;;9.42;67.19
67987;BME280;54767;53.800;15.956;2023-04-30T06:00:26;100755.19;;;9.37;66.65
67987;BME280;54767;53.800;15.956;2023-04-30T06:02:54;100756.45;;;9.29;66.34
67987;BME280;54767;53.800;15.956;2023-04-30T06:05:22;100759.12;;;9.20;66.39
67987;BME280;54767;53.800;15.956;2023-04-30T06:07:51;100761.54;;;9.19;66.39
67987;BME280;54767;53.800;15.956;2023-04-30T06:10:19;100766.23;;;9.17;66.12
67987;BME280;54767;53.800;15.956;2023-04-30T06:12:47;100768.30;;;9.16;66.27
67987;BME280;54767;53.800;15.956;2023-04-30T06:15:16;100771.29;;;9.17;66.29
67987;BME280;54767;53.800;15.956;2023-04-30T06:17:44;100776.25;;;9.21;66.26
67987;BME280;54767;53.800;15.956;2023-04-30T06:20:12;100781.15;;;9.22;65.93
67987;BME280;54767;53.800;15.956;2023-04-30T06:22:41;100782.67;;;9.18;65.17
67987;BME280;54767;53.800;15.956;2023-04-30T06:25:09;100787.83;;;9.14;65.36
67987;BME280;54767;53.800;15.956;2023-04-30T06:27:37;100789.18;;;9.11;65.73
67987;BME280;54767;53.800;15.956;2023-04-30T06:30:06;100791.70;;;9.05;64.94
67987;BME280;54767;53.800;15.956;2023-04-30T06:32:35;100795.96;;;8.99;65.26
67987;BME280;54767;53.800;15.956;2023-04-30T06:35:04;100794.11;;;8.94;64.53
67987;BME280;54767;53.800;15.956;2023-04-30T06:37:32;100793.27;;;8.85;64.36
67987;BME280;54767;53.800;15.956;2023-04-30T06:40:05;100792.45;;;8.78;64.43
67987;BME280;54767;53.800;15.956;2023-04-30T06:42:34;100792.77;;;8.76;64.55
67987;BME280;54767;53.800;15.956;2023-04-30T06:45:03;100793.98;;;8.77;64.98
67987;BME280;54767;53.800;15.956;2023-04-30T06:47:33;100798.25;;;8.80;65.34
67987;BME280;54767;53.800;15.956;2023-04-30T06:50:03;100795.17;;;8.84;65.80
67987;BME280;54767;53.800;15.956;2023-04-30T06:52:32;100795.77;;;8.88;65.44
67987;BME280;54767;53.800;15.956;2023-04-30T06:55:00;100798.05;;;8.89;65.51
67987;BME280;54767;53.800;15.956;2023-04-30T06:57:28;100807.82;;;8.89;65.53
67987;BME280;54767;53.800;15.956;2023-04-30T06:59:57;100808.70;;;8.89;65.72
67987;BME280;54767;53.800;15.956;2023-04-30T07:02:26;100806.63;;;8.91;65.43
67987;BME280;54767;53.800;15.956;2023-04-30T07:04:54;100809.80;;;8.92;65.05
67987;BME280;54767;53.800;15.956;2023-04-30T07:07:23;100802.63;;;8.91;64.77
67987;BME280;54767;53.800;15.956;2023-04-30T07:09:51;100813.83;;;8.93;64.44
67987;BME280;54767;53.800;15.956;2023-04-30T07:12:20;100809.98;;;8.92;64.54
67987;BME280;54767;53.800;15.956;2023-04-30T07:14:49;100810.32;;;8.92;63.98
67987;BME280;54767;53.800;15.956;2023-04-30T07:17:17;100812.20;;;8.90;63.40
67987;BME280;54767;53.800;15.956;2023-04-30T07:19:45;100808.02;;;8.91;63.18
67987;BME280;54767;53.800;15.956;2023-04-30T07:22:14;100812.94;;;8.92;63.16
67987;BME280;54767;53.800;15.956;2023-04-30T07:24:42;100813.49;;;8.94;63.20
67987;BME280;54767;53.800;15.956;2023-04-30T07:27:10;100820.39;;;8.98;62.69
67987;BME280;54767;53.800;15.956;2023-04-30T07:29:38;100819.76;;;9.02;62.73
67987;BME280;54767;53.800;15.956;2023-04-30T07:32:06;100826.56;;;9.02;60.83
67987;BME280;54767;53.800;15.956;2023-04-30T07:34:34;100829.98;;;8.97;60.05
67987;BME280;54767;53.800;15.956;2023-04-30T07:37:02;100833.90;;;8.93;60.63
67987;BME280;54767;53.800;15.956;2023-04-30T07:39:31;100833.08;;;8.95;61.48
67987;BME280;54767;53.800;15.956;2023-04-30T07:41:59;100837.61;;;9.04;61.83
67987;BME280;54767;53.800;15.956;2023-04-30T07:44:30;100838.62;;;9.12;62.39
67987;BME280;54767;53.800;15.956;2023-04-30T07:46:58;100839.41;;;9.18;62.75
67987;BME280;54767;53.800;15.956;2023-04-30T07:49:27;100840.86;;;9.21;62.89
67987;BME280;54767;53.800;15.956;2023-04-30T07:52:04;100847.02;;;9.23;62.97
67987;BME280;54767;53.800;15.956;2023-04-30T07:54:43;100854.72;;;9.24;62.16
67987;BME280;54767;53.800;15.956;2023-04-30T07:57:24;100856.91;;;9.31;62.24
67987;BME280;54767;53.800;15.956;2023-04-30T08:00:02;100854.27;;;9.39;62.43
67987;BME280;54767;53.800;15.956;2023-04-30T08:02:40;100862.97;;;9.47;62.83
67987;BME280;54767;53.800;15.956;2023-04-30T08:05:12;100859.78;;;9.56;62.75
67987;BME280;54767;53.800;15.956;2023-04-30T08:07:40;100862.46;;;9.60;61.91
67987;BME280;54767;53.800;15.956;2023-04-30T08:10:09;100862.96;;;9.58;59.98
67987;BME280;54767;53.800;15.956;2023-04-30T08:12:40;100866.85;;;9.50;58.51
67987;BME280;54767;53.800;15.956;2023-04-30T08:15:12;100871.00;;;9.47;59.43
67987;BME280;54767;53.800;15.956;2023-04-30T08:17:41;100869.29;;;9.49;59.04
67987;BME280;54767;53.800;15.956;2023-04-30T08:20:10;100864.19;;;9.58;60.25
67987;BME280;54767;53.800;15.956;2023-04-30T08:22:38;100869.30;;;9.71;60.51
67987;BME280;54767;53.800;15.956;2023-04-30T08:25:09;100872.38;;;9.78;59.75
67987;BME280;54767;53.800;15.956;2023-04-30T08:27:38;100872.48;;;9.74;58.63
67987;BME280;54767;53.800;15.956;2023-04-30T08:30:07;100878.66;;;9.67;57.76
67987;BME280;54767;53.800;15.956;2023-04-30T08:32:37;100878.73;;;9.60;57.83
67987;BME280;54767;53.800;15.956;2023-04-30T08:35:06;100877.99;;;9.57;58.90
67987;BME280;54767;53.800;15.956;2023-04-30T08:37:36;100882.13;;;9.65;59.37
67987;BME280;54767;53.800;15.956;2023-04-30T08:40:05;100885.04;;;9.72;59.88
67987;BME280;54767;53.800;15.956;2023-04-30T08:42:40;100879.73;;;9.80;59.79
67987;BME280;54767;53.800;15.956;2023-04-30T08:45:59;100885.38;;;9.95;60.51
67987;BME280;54767;53.800;15.956;2023-04-30T08:48:28;100885.70;;;10.05;58.42
67987;BME280;54767;53.800;15.956;2023-04-30T08:51:01;100887.85;;;10.08;56.93
67987;BME280;54767;53.800;15.956;2023-04-30T08:53:30;100887.33;;;10.08;56.89
67987;BME280;54767;53.800;15.956;2023-04-30T08:56:02;100889.14;;;10.13;58.06
67987;BME280;54767;53.800;15.956;2023-04-30T08:58:31;100889.09;;;10.21;57.17
67987;BME280;54767;53.800;15.956;2023-04-30T09:01:00;100894.23;;;10.14;53.65
67987;BME280;54767;53.800;15.956;2023-04-30T09:03:30;100902.81;;;10.03;55.21
67987;BME280;54767;53.800;15.956;2023-04-30T09:05:58;100900.85;;;10.00;56.56
67987;BME280;54767;53.800;15.956;2023-04-30T09:08:47;100896.16;;;10.03;57.14
67987;BME280;54767;53.800;15.956;2023-04-30T09:11:30;100900.17;;;10.14;57.90
67987;BME280;54767;53.800;15.956;2023-04-30T09:14:00;100899.35;;;10.17;55.71
67987;BME280;54767;53.800;15.956;2023-04-30T09:16:29;100903.05;;;10.19;54.96
67987;BME280;54767;53.800;15.956;2023-04-30T09:19:01;100900.35;;;10.13;54.52
67987;BME280;54767;53.800;15.956;2023-04-30T09:21:36;100898.09;;;10.15;55.49
67987;BME280;54767;53.800;15.956;2023-04-30T09:24:04;100905.68;;;10.19;56.03
67987;BME280;54767;53.800;15.956;2023-04-30T09:26:35;100907.33;;;10.24;57.12
67987;BME280;54767;53.800;15.956;2023-04-30T09:29:04;100908.69;;;10.32;57.25
67987;BME280;54767;53.800;15.956;2023-04-30T09:31:37;100913.05;;;10.44;56.77
67987;BME280;54767;53.800;15.956;2023-04-30T09:34:05;100907.02;;;10.52;57.27
67987;BME280;54767;53.800;15.956;2023-04-30T09:36:34;100903.64;;;10.60;56.97
67987;BME280;54767;53.800;15.956;2023-04-30T09:39:09;100909.42;;;10.61;53.85
67987;BME280;54767;53.800;15.956;2023-04-30T09:41:42;100905.64;;;10.53;55.03
67987;BME280;54767;53.800;15.956;2023-04-30T09:44:31;100913.38;;;10.56;54.76
67987;BME280;54767;53.800;15.956;2023-04-30T09:46:59;100908.73;;;10.48;53.25
67987;BME280;54767;53.800;15.956;2023-04-30T09:49:27;100911.79;;;10.42;54.38
67987;BME280;54767;53.800;15.956;2023-04-30T09:51:57;100912.05;;;10.47;55.73
67987;BME280;54767;53.800;15.956;2023-04-30T09:54:28;100910.41;;;10.56;54.67
67987;BME280;54767;53.800;15.956;2023-04-30T09:57:15;100910.70;;;10.65;55.63
67987;BME280;54767;53.800;15.956;2023-04-30T09:59:45;100908.52;;;10.73;54.12
67987;BME280;54767;53.800;15.956;2023-04-30T10:02:14;100905.92;;;10.76;54.71
67987;BME280;54767;53.800;15.956;2023-04-30T10:04:44;100904.20;;;10.79;55.12
67987;BME280;54767;53.800;15.956;2023-04-30T10:07:19;100906.36;;;10.83;55.39
67987;BME280;54767;53.800;15.956;2023-04-30T10:09:57;100907.98;;;10.87;53.48
67987;BME280;54767;53.800;15.956;2023-04-30T10:12:37;100903.80;;;10.88;53.66
67987;BME280;54767;53.800;15.956;2023-04-30T10:15:14;100904.38;;;10.94;54.67
67987;BME280;54767;53.800;15.956;2023-04-30T10:17:48;100901.15;;;11.02;54.33
67987;BME280;54767;53.800;15.956;2023-04-30T10:20:17;100900.15;;;11.07;54.17
67987;BME280;54767;53.800;15.956;2023-04-30T10:22:48;100903.91;;;11.15;54.49
67987;BME280;54767;53.800;15.956;2023-04-30T10:25:17;100900.15;;;11.25;54.70
67987;BME280;54767;53.800;15.956;2023-04-30T10:27:45;100905.51;;;11.35;53.88
67987;BME280;54767;53.800;15.956;2023-04-30T10:30:15;100897.15;;;11.40;53.99
67987;BME280;54767;53.800;15.956;2023-04-30T10:32:52;100884.92;;;11.45;53.54
67987;BME280;54767;53.800;15.956;2023-04-30T10:35:30;100896.73;;;11.52;53.61
67987;BME280;54767;53.800;15.956;2023-04-30T10:40:37;100900.83;;;11.61;53.23
67987;BME280;54767;53.800;15.956;2023-04-30T10:43:05;100896.31;;;11.66;53.37
67987;BME280;54767;53.800;15.956;2023-04-30T10:45:35;100895.48;;;11.71;52.29
67987;BME280;54767;53.800;15.956;2023-04-30T10:48:06;100902.64;;;11.69;52.20
67987;BME280;54767;53.800;15.956;2023-04-30T10:50:42;100905.80;;;11.69;53.07
67987;BME280;54767;53.800;15.956;2023-04-30T10:53:16;100908.97;;;11.69;52.07
67987;BME280;54767;53.800;15.956;2023-04-30T10:56:06;100911.55;;;11.64;52.39
67987;BME280;54767;53.800;15.956;2023-04-30T10:58:38;100911.35;;;11.60;51.02
67987;BME280;54767;53.800;15.956;2023-04-30T11:01:14;100909.05;;;11.58;51.28
67987;BME280;54767;53.800;15.956;2023-04-30T11:04:06;100910.30;;;11.60;52.58
67987;BME280;54767;53.800;15.956;2023-04-30T11:09:43;100910.27;;;11.80;52.41
67987;BME280;54767;53.800;15.956;2023-04-30T11:12:14;100905.91;;;11.82;50.14
67987;BME280;54767;53.800;15.956;2023-04-30T11:14:44;100905.70;;;11.78;50.21
67987;BME280;54767;53.800;15.956;2023-04-30T11:17:21;100904.96;;;11.73;48.75
67987;BME280;54767;53.800;15.956;2023-04-30T11:19:51;100905.75;;;11.62;48.28
67987;BME280;54767;53.800;15.956;2023-04-30T11:22:22;100910.89;;;11.48;48.95
67987;BME280;54767;53.800;15.956;2023-04-30T11:27:26;100911.52;;;11.23;49.41
67987;BME280;54767;53.800;15.956;2023-04-30T11:29:56;100904.04;;;11.29;49.56
67987;BME280;54767;53.800;15.956;2023-04-30T11:32:25;100907.80;;;11.36;50.89
67987;BME280;54767;53.800;15.956;2023-04-30T11:34:54;100911.23;;;11.46;51.24
67987;BME280;54767;53.800;15.956;2023-04-30T11:37:33;100915.17;;;11.56;50.65
67987;BME280;54767;53.800;15.956;2023-04-30T11:40:06;100917.70;;;11.66;50.94
67987;BME280;54767;53.800;15.956;2023-04-30T11:42:36;100909.19;;;11.75;50.46
67987;BME280;54767;53.800;15.956;2023-04-30T11:45:08;100910.30;;;11.82;50.85
67987;BME280;54767;53.800;15.956;2023-04-30T11:50:15;100918.81;;;11.91;48.99
67987;BME280;54767;53.800;15.956;2023-04-30T11:52:49;100913.84;;;11.85;48.34
67987;BME280;54767;53.800;15.956;2023-04-30T11:55:19;100911.63;;;11.74;48.70
67987;BME280;54767;53.800;15.956;2023-04-30T11:57:50;100913.27;;;11.60;47.21
67987;BME280;54767;53.800;15.956;2023-04-30T12:00:23;100910.42;;;11.36;47.51
67987;BME280;54767;53.800;15.956;2023-04-30T12:02:54;100909.30;;;11.28;47.91
67987;BME280;54767;53.800;15.956;2023-04-30T12:05:23;100915.59;;;11.26;49.15
67987;BME280;54767;53.800;15.956;2023-04-30T12:08:05;100915.27;;;11.30;48.70
67987;BME280;54767;53.800;15.956;2023-04-30T12:10:35;100917.98;;;11.38;48.43
67987;BME280;54767;53.800;15.956;2023-04-30T12:13:03;100912.61;;;11.45;49.82
67987;BME280;54767;53.800;15.956;2023-04-30T12:15:31;100917.85;;;11.62;50.48
67987;BME280;54767;53.800;15.956;2023-04-30T12:18:10;100918.85;;;11.76;48.89
67987;BME280;54767;53.800;15.956;2023-04-30T12:20:40;100914.64;;;11.77;49.22
67987;BME280;54767;53.800;15.956;2023-04-30T12:23:09;100913.71;;;11.90;50.00
67987;BME280;54767;53.800;15.956;2023-04-30T12:25:41;100911.89;;;12.05;50.32
67987;BME280;54767;53.800;15.956;2023-04-30T12:28:12;100920.23;;;12.17;47.63
67987;BME280;54767;53.800;15.956;2023-04-30T12:30:41;100916.16;;;12.13;47.37
67987;BME280;54767;53.800;15.956;2023-04-30T12:33:10;100915.23;;;12.05;46.43
67987;BME280;54767;53.800;15.956;2023-04-30T12:35:42;100916.56;;;11.94;47.17
67987;BME280;54767;53.800;15.956;2023-04-30T12:38:14;100920.64;;;12.00;48.65
67987;BME280;54767;53.800;15.956;2023-04-30T12:40:46;100914.40;;;12.11;48.27
67987;BME280;54767;53.800;15.956;2023-04-30T12:43:16;100909.84;;;12.12;47.03
67987;BME280;54767;53.800;15.956;2023-04-30T12:45:50;100914.77;;;12.14;47.35
67987;BME280;54767;53.800;15.956;2023-04-30T12:48:21;100915.17;;;12.22;48.34
67987;BME280;54767;53.800;15.956;2023-04-30T12:50:59;100911.38;;;12.36;48.93
67987;BME280;54767;53.800;15.956;2023-04-30T12:53:28;100912.14;;;12.46;47.52
67987;BME280;54767;53.800;15.956;2023-04-30T12:58:46;100908.22;;;12.34;45.86
67987;BME280;54767;53.800;15.956;2023-04-30T13:01:18;100905.50;;;12.20;43.78
67987;BME280;54767;53.800;15.956;2023-04-30T13:03:48;100911.03;;;12.06;46.21
67987;BME280;54767;53.800;15.956;2023-04-30T13:06:16;100917.88;;;12.07;45.98
67987;BME280;54767;53.800;15.956;2023-04-30T13:08:45;100911.27;;;12.16;46.85
67987;BME280;54767;53.800;15.956;2023-04-30T13:11:25;100918.63;;;12.14;45.35
67987;BME280;54767;53.800;15.956;2023-04-30T13:13:54;100917.04;;;12.10;46.23
67987;BME280;54767;53.800;15.956;2023-04-30T13:16:23;100917.23;;;12.15;46.83
67987;BME280;54767;53.800;15.956;2023-04-30T13:18:53;100919.23;;;12.27;47.15
67987;BME280;54767;53.800;15.956;2023-04-30T13:21:22;100914.52;;;12.29;43.87
67987;BME280;54767;53.800;15.956;2023-04-30T13:23:51;100916.36;;;12.17;43.64
67987;BME280;54767;53.800;15.956;2023-04-30T13:26:22;100913.20;;;12.16;43.80
67987;BME280;54767;53.800;15.956;2023-04-30T13:28:51;100914.46;;;12.21;43.74
67987;BME280;54767;53.800;15.956;2023-04-30T13:31:19;100920.98;;;12.28;41.87
67987;BME280;54767;53.800;15.956;2023-04-30T13:33:47;100910.41;;;12.18;41.68
67987;BME280;54767;53.800;15.956;2023-04-30T13:36:16;100905.97;;;12.12;41.91